createdAt,value
2023-06-14T00:00:19.890Z,2.90
2023-06-14T00:03:13.216Z,2.30
2023-06-14T00:05:44.526Z,2.50
2023-06-14T00:08:12.619Z,2.70
2023-06-14T00:10:43.329Z,2.30
2023-06-14T00:13:13.058Z,2.40
2023-06-14T00:15:42.214Z,2.60
2023-06-14T00:18:12.855Z,2.50
2023-06-14T00:20:43.011Z,2.40
2023-06-14T00:23:11.647Z,2.70
2023-06-14T00:25:39.561Z,2.60
2023-06-14T00:28:07.437Z,2.30
2023-06-14T00:30:35.405Z,2.60
2023-06-14T00:33:03.715Z,2.30
2023-06-14T00:35:33.858Z,2.30
2023-06-14T00:38:02.836Z,3.00
2023-06-14T00:40:30.857Z,2.70
2023-06-14T00:42:58.875Z,2.60
2023-06-14T00:45:26.825Z,2.80
2023-06-14T00:47:56.626Z,2.80
2023-06-14T00:50:25.384Z,2.40
2023-06-14T00:52:53.344Z,2.70
2023-06-14T00:55:22.680Z,2.90
2023-06-14T00:57:50.910Z,2.90
2023-06-14T01:00:19.313Z,3.00
2023-06-14T01:02:48.723Z,3.40
2023-06-14T01:05:19.082Z,2.80
2023-06-14T01:08:21.115Z,2.60
2023-06-14T01:10:57.448Z,2.10
2023-06-14T01:13:41.006Z,2.60
2023-06-14T01:18:39.004Z,2.60
2023-06-14T01:21:07.101Z,3.60
2023-06-14T01:23:36.632Z,3.40
2023-06-14T01:26:04.686Z,2.80
2023-06-14T01:28:35.109Z,2.80
2023-06-14T01:31:05.959Z,2.60
2023-06-14T01:33:39.138Z,2.70
2023-06-14T01:36:10.781Z,3.00
2023-06-14T01:38:39.115Z,2.90
2023-06-14T01:41:07.972Z,3.10
2023-06-14T01:43:36.656Z,2.80
2023-06-14T01:46:07.835Z,2.50
2023-06-14T01:48:36.346Z,2.80
2023-06-14T01:51:04.537Z,2.70
2023-06-14T01:53:32.491Z,2.00
2023-06-14T01:56:01.232Z,2.60
2023-06-14T01:58:29.054Z,2.70
2023-06-14T02:00:58.016Z,3.00
2023-06-14T02:03:26.331Z,2.50
2023-06-14T02:05:55.659Z,2.80
2023-06-14T02:08:24.520Z,3.10
2023-06-14T02:10:54.237Z,2.70
2023-06-14T02:13:22.117Z,2.90
2023-06-14T02:15:54.317Z,2.60
2023-06-14T02:18:24.205Z,2.90
2023-06-14T02:20:54.245Z,2.90
2023-06-14T02:23:22.142Z,2.70
2023-06-14T02:25:51.357Z,2.90
2023-06-14T02:28:19.408Z,2.90
2023-06-14T02:30:47.440Z,2.90
2023-06-14T02:33:15.318Z,3.10
2023-06-14T02:35:43.270Z,3.90
2023-06-14T02:38:12.976Z,2.80
2023-06-14T02:40:43.486Z,3.30
2023-06-14T02:43:11.301Z,3.00
2023-06-14T02:45:39.327Z,2.80
2023-06-14T02:48:07.395Z,3.10
2023-06-14T02:50:35.309Z,3.30
2023-06-14T02:53:04.587Z,3.20
2023-06-14T02:55:33.098Z,3.00
2023-06-14T02:58:01.326Z,3.20
2023-06-14T03:00:31.775Z,3.30
2023-06-14T03:03:02.956Z,3.10
2023-06-14T03:05:32.688Z,3.10
2023-06-14T03:08:01.265Z,2.60
2023-06-14T03:10:30.355Z,3.00
2023-06-14T03:12:58.510Z,3.30
2023-06-14T03:15:26.537Z,2.70
2023-06-14T03:17:55.225Z,2.90
2023-06-14T03:20:23.230Z,3.30
2023-06-14T03:22:51.405Z,3.10
2023-06-14T03:25:20.034Z,3.20
2023-06-14T03:30:15.966Z,3.60
2023-06-14T03:32:44.245Z,3.60
2023-06-14T03:35:18.269Z,3.40
2023-06-14T03:37:47.609Z,2.90
2023-06-14T03:40:19.680Z,3.20
2023-06-14T03:42:47.396Z,3.00
2023-06-14T03:45:15.736Z,3.30
2023-06-14T03:47:43.843Z,2.90
2023-06-14T03:50:12.098Z,3.50
2023-06-14T03:52:41.400Z,3.70
2023-06-14T03:57:43.109Z,3.70
2023-06-14T04:00:13.274Z,4.10
2023-06-14T04:02:41.321Z,4.20
2023-06-14T04:05:10.013Z,3.50
2023-06-14T04:07:41.434Z,3.80
2023-06-14T04:10:09.777Z,3.70
2023-06-14T04:12:37.548Z,3.50
2023-06-14T04:15:20.839Z,4.10
2023-06-14T04:17:50.550Z,3.70
2023-06-14T04:20:19.052Z,4.20
2023-06-14T04:22:47.296Z,3.90
2023-06-14T04:25:16.170Z,3.90
2023-06-14T04:27:45.144Z,3.40
2023-06-14T04:30:14.567Z,4.40
2023-06-14T04:32:43.841Z,4.30
2023-06-14T04:35:12.634Z,3.80
2023-06-14T04:37:42.646Z,3.80
2023-06-14T04:40:12.800Z,4.10
2023-06-14T04:42:42.094Z,4.20
2023-06-14T04:45:11.131Z,4.10
2023-06-14T04:47:39.830Z,3.50
2023-06-14T04:50:08.080Z,4.40
2023-06-14T04:52:37.359Z,4.60
2023-06-14T04:55:06.469Z,4.30
2023-06-14T04:57:34.283Z,4.30
2023-06-14T05:00:05.921Z,4.20
2023-06-14T05:02:34.275Z,3.90
2023-06-14T05:05:03.507Z,3.80
2023-06-14T05:07:31.685Z,4.00
2023-06-14T05:09:59.553Z,2.90
2023-06-14T05:12:27.879Z,3.50
2023-06-14T05:14:55.828Z,4.10
2023-06-14T05:17:23.672Z,3.90
2023-06-14T05:19:51.922Z,4.00
2023-06-14T05:22:19.826Z,4.00
2023-06-14T05:24:49.508Z,5.00
2023-06-14T05:27:18.266Z,3.40
2023-06-14T05:29:48.345Z,4.60
2023-06-14T05:32:16.378Z,4.20
2023-06-14T05:34:44.582Z,4.20
2023-06-14T05:37:12.686Z,4.20
2023-06-14T05:39:40.538Z,4.30
2023-06-14T05:42:08.906Z,4.40
2023-06-14T05:44:36.663Z,3.60
2023-06-14T05:47:05.036Z,3.90
2023-06-14T05:49:32.923Z,4.30
2023-06-14T05:52:00.748Z,4.20
2023-06-14T05:54:28.644Z,5.20
2023-06-14T05:57:02.312Z,4.20
2023-06-14T05:59:30.532Z,4.60
2023-06-14T06:01:58.759Z,4.60
2023-06-14T06:04:27.088Z,4.30
2023-06-14T06:06:55.710Z,3.80
2023-06-14T06:09:23.554Z,4.10
2023-06-14T06:11:53.627Z,4.20
2023-06-14T06:14:23.438Z,4.60
2023-06-14T06:16:53.997Z,4.20
2023-06-14T06:19:21.792Z,3.30
2023-06-14T06:21:50.580Z,3.90
2023-06-14T06:24:18.493Z,4.30
2023-06-14T06:26:46.362Z,4.00
2023-06-14T06:29:14.312Z,3.70
2023-06-14T06:31:42.597Z,4.70
2023-06-14T06:34:11.133Z,4.00
2023-06-14T06:36:38.908Z,4.10
2023-06-14T06:39:11.369Z,4.20
2023-06-14T06:41:41.173Z,4.60
2023-06-14T06:44:11.860Z,3.90
2023-06-14T06:46:42.380Z,4.10
2023-06-14T06:49:13.203Z,3.80
2023-06-14T06:51:45.560Z,4.10
2023-06-14T06:54:14.063Z,3.90
2023-06-14T06:56:41.920Z,4.10
2023-06-14T06:59:10.540Z,4.60
2023-06-14T07:01:38.366Z,4.50
2023-06-14T07:04:06.470Z,4.10
2023-06-14T07:06:34.289Z,4.00
2023-06-14T07:09:02.636Z,4.00
2023-06-14T07:11:30.612Z,4.50
2023-06-14T07:13:58.764Z,3.80
2023-06-14T07:16:28.076Z,4.00
2023-06-14T07:18:56.243Z,4.20
2023-06-14T07:21:24.169Z,3.60
2023-06-14T07:23:52.307Z,3.90
2023-06-14T07:26:20.342Z,3.60
2023-06-14T07:28:49.847Z,3.20
2023-06-14T07:31:19.636Z,3.40
2023-06-14T07:33:47.607Z,3.70
2023-06-14T07:36:15.621Z,3.60
2023-06-14T07:38:43.405Z,3.80
2023-06-14T07:41:11.243Z,3.70
2023-06-14T07:43:39.053Z,4.00
2023-06-14T07:46:08.243Z,3.40
2023-06-14T07:48:36.815Z,3.70
2023-06-14T07:51:05.576Z,3.20
2023-06-14T07:53:33.501Z,3.80
2023-06-14T07:56:01.747Z,3.20
2023-06-14T07:58:29.932Z,3.80
2023-06-14T08:00:57.828Z,3.50
2023-06-14T08:03:25.740Z,4.20
2023-06-14T08:05:53.970Z,3.90
2023-06-14T08:08:22.252Z,3.80
2023-06-14T08:10:50.085Z,4.60
2023-06-14T08:13:17.845Z,3.80
2023-06-14T08:15:46.209Z,4.10
2023-06-14T08:18:14.085Z,3.40
2023-06-14T08:20:43.340Z,3.70
2023-06-14T08:23:12.636Z,3.30
2023-06-14T08:25:40.518Z,3.70
2023-06-14T08:28:08.335Z,3.20
2023-06-14T08:30:36.799Z,3.20
2023-06-14T08:33:15.850Z,3.90
2023-06-14T08:35:45.596Z,3.70
2023-06-14T08:38:13.686Z,3.60
2023-06-14T08:40:43.724Z,3.50
2023-06-14T08:43:11.894Z,3.30
2023-06-14T08:45:40.142Z,3.40
2023-06-14T08:48:09.330Z,3.30
2023-06-14T08:50:41.251Z,3.00
2023-06-14T08:53:11.503Z,2.80
2023-06-14T08:55:43.456Z,3.10
2023-06-14T08:58:15.766Z,3.00
2023-06-14T09:00:45.764Z,3.10
2023-06-14T09:03:18.338Z,3.30
2023-06-14T09:05:47.378Z,3.20
2023-06-14T09:08:17.481Z,3.10
